Terminal Aerodrome Forecast
Issued by NWS Shreveport, LA

Home | Current Version | Previous Version | Text Only | Print | Product List | Glossary On
Versions: 1 2 3 4 5 6 7 8 9 10 11 12 13
595
FTUS44 KSHV 130542
TAFLFK
TAF
KLFK 130542Z 1306/1406 02003KT P6SM SKC
     FM131200 08004KT P6SM SCT040
     FM131500 09007KT P6SM SCT040
     FM140000 10006KT P6SM BKN040 OVC250=

USA.gov is the U.S. government's official web portal to all federal, state and local government web resources and services.